createdAt,value
2019-05-18T00:02:18.536Z,91.90
2019-05-18T00:04:45.121Z,92.10
2019-05-18T00:07:13.992Z,92.30
2019-05-18T00:09:40.574Z,92.10
2019-05-18T00:12:07.161Z,92.20
2019-05-18T00:14:35.892Z,92.10
2019-05-18T00:17:02.755Z,92.00
2019-05-18T00:19:29.617Z,92.00
2019-05-18T00:21:58.522Z,92.20
2019-05-18T00:24:25.212Z,92.30
2019-05-18T00:26:52.111Z,92.40
2019-05-18T00:29:22.126Z,92.50
2019-05-18T00:31:48.708Z,92.40
2019-05-18T00:34:15.290Z,92.20
2019-05-18T00:36:44.090Z,92.80
2019-05-18T00:39:10.672Z,93.10
2019-05-18T00:41:37.289Z,92.90
2019-05-18T00:44:06.320Z,93.00
2019-05-18T00:46:32.902Z,93.00
2019-05-18T00:48:59.491Z,93.30
2019-05-18T00:51:28.612Z,93.60
2019-05-18T00:53:55.220Z,93.30
2019-05-18T00:56:22.151Z,93.60
2019-05-18T00:58:50.513Z,93.60
2019-05-18T01:01:17.100Z,93.70
2019-05-18T01:03:44.010Z,93.90
2019-05-18T01:06:14.019Z,94.30
2019-05-18T01:08:40.606Z,94.90
2019-05-18T01:11:07.474Z,96.40
2019-05-18T01:13:36.300Z,95.70
2019-05-18T01:16:03.148Z,94.90
2019-05-18T01:18:30.062Z,94.80
2019-05-18T01:20:58.483Z,95.00
2019-05-18T01:23:25.347Z,94.50
2019-05-18T01:25:51.981Z,95.00
2019-05-18T01:28:21.504Z,95.10
2019-05-18T01:30:48.393Z,94.40
2019-05-18T01:33:15.499Z,94.20
2019-05-18T01:35:43.677Z,94.20
2019-05-18T01:38:12.043Z,94.80
2019-05-18T01:40:38.656Z,95.00
2019-05-18T01:43:07.457Z,94.90
2019-05-18T01:45:34.055Z,95.10
2019-05-18T01:48:12.784Z,94.50
2019-05-18T01:50:32.200Z,94.80
2019-05-18T01:52:58.885Z,95.30
2019-05-18T01:55:25.495Z,94.90
2019-05-18T01:57:54.740Z,95.30
2019-05-18T02:00:22.457Z,95.50
2019-05-18T02:02:49.043Z,96.10
2019-05-18T02:05:18.002Z,95.10
2019-05-18T02:07:44.861Z,95.20
2019-05-18T02:10:11.443Z,94.90
2019-05-18T02:12:40.346Z,95.00
2019-05-18T02:15:06.930Z,94.60
2019-05-18T02:17:33.544Z,94.30
2019-05-18T02:20:02.174Z,94.40
2019-05-18T02:22:28.761Z,94.20
2019-05-18T02:24:55.597Z,94.30
2019-05-18T02:27:24.491Z,94.40
2019-05-18T02:29:51.292Z,94.40
2019-05-18T02:32:18.156Z,94.30
2019-05-18T02:34:46.836Z,94.20
2019-05-18T02:37:13.494Z,94.20
2019-05-18T02:39:40.077Z,95.50
2019-05-18T02:42:08.859Z,95.20
2019-05-18T02:44:35.466Z,95.00
2019-05-18T02:47:02.054Z,94.70
2019-05-18T02:49:31.921Z,94.50
2019-05-18T02:51:58.820Z,94.40
2019-05-18T02:54:25.421Z,95.50
2019-05-18T02:56:53.750Z,97.00
2019-05-18T02:59:20.332Z,96.10
2019-05-18T03:01:46.938Z,96.00
2019-05-18T03:04:16.055Z,95.90
2019-05-18T03:06:42.847Z,95.40
2019-05-18T03:09:09.708Z,95.90
2019-05-18T03:11:42.943Z,95.90
2019-05-18T03:14:09.534Z,95.80
2019-05-18T03:16:36.347Z,96.50
2019-05-18T03:19:08.697Z,95.90
2019-05-18T03:21:33.129Z,95.40
2019-05-18T03:23:59.725Z,95.00
2019-05-18T03:26:28.306Z,95.00
2019-05-18T03:28:55.165Z,94.80
2019-05-18T03:31:22.197Z,96.00
2019-05-18T03:33:52.141Z,95.00
2019-05-18T03:36:18.725Z,94.80
2019-05-18T03:38:45.598Z,94.60
2019-05-18T03:41:14.450Z,94.30
2019-05-18T03:43:41.292Z,95.00
2019-05-18T03:46:07.891Z,95.00
2019-05-18T03:48:37.334Z,95.00
2019-05-18T03:51:03.906Z,95.20
2019-05-18T03:53:30.689Z,95.40
2019-05-18T03:55:59.898Z,96.00
2019-05-18T03:58:26.653Z,96.60
2019-05-18T04:00:53.547Z,95.50
2019-05-18T04:03:22.074Z,95.40
2019-05-18T04:05:48.844Z,94.80
2019-05-18T04:08:15.433Z,94.90
2019-05-18T04:10:44.235Z,94.80
2019-05-18T04:13:11.191Z,95.10
2019-05-18T04:15:37.785Z,95.30
2019-05-18T04:18:06.241Z,94.70
2019-05-18T04:20:32.836Z,94.80
2019-05-18T04:22:59.419Z,94.80
2019-05-18T04:25:28.663Z,94.50
2019-05-18T04:27:55.335Z,95.70
2019-05-18T04:30:22.512Z,95.30
2019-05-18T04:32:51.006Z,94.80
2019-05-18T04:35:17.851Z,95.20
2019-05-18T04:37:44.715Z,94.40
2019-05-18T04:42:46.527Z,94.50
2019-05-18T04:45:13.141Z,94.90
2019-05-18T04:47:40.005Z,95.10
2019-05-18T04:50:08.358Z,95.70
2019-05-18T04:52:34.952Z,95.80
2019-05-18T04:55:01.863Z,95.30
2019-05-18T04:57:32.645Z,95.90
2019-05-18T04:59:59.218Z,95.20
2019-05-18T05:02:25.831Z,96.00
2019-05-18T05:04:56.684Z,95.70
2019-05-18T05:07:22.617Z,94.40
2019-05-18T05:09:49.206Z,95.10
2019-05-18T05:12:17.905Z,96.10
2019-05-18T05:14:45.664Z,96.10
2019-05-18T05:17:12.315Z,96.10
2019-05-18T05:19:41.131Z,96.50
2019-05-18T05:22:07.706Z,96.90
2019-05-18T05:24:34.578Z,96.60
2019-05-18T05:27:03.505Z,97.00
2019-05-18T05:29:30.104Z,97.40
2019-05-18T05:31:57.706Z,97.30
2019-05-18T05:34:26.507Z,98.00
2019-05-18T05:36:57.180Z,98.10
2019-05-18T05:39:25.535Z,97.60
2019-05-18T05:41:54.199Z,98.40
2019-05-18T05:44:21.866Z,98.00
2019-05-18T05:46:48.462Z,98.30
2019-05-18T05:49:20.353Z,98.20
2019-05-18T05:51:46.952Z,98.10
2019-05-18T05:54:13.823Z,97.50
2019-05-18T05:56:43.868Z,97.10
2019-05-18T05:59:11.596Z,98.00
2019-05-18T06:01:39.217Z,95.90
2019-05-18T06:04:07.917Z,95.50
2019-05-18T06:06:35.536Z,95.00
2019-05-18T06:09:03.285Z,95.60
2019-05-18T06:11:32.556Z,96.00
2019-05-18T06:14:00.155Z,95.20
2019-05-18T06:16:29.731Z,96.10
2019-05-18T06:18:58.502Z,95.70
2019-05-18T06:21:26.410Z,95.80
2019-05-18T06:23:54.046Z,94.60
2019-05-18T06:26:24.378Z,95.00
2019-05-18T06:28:51.018Z,95.20
2019-05-18T06:31:17.613Z,95.50
2019-05-18T06:33:47.349Z,95.20
2019-05-18T06:36:14.737Z,94.30
2019-05-18T06:38:41.381Z,94.00
2019-05-18T06:41:12.871Z,93.80
2019-05-18T06:43:39.793Z,94.90
2019-05-18T06:46:06.630Z,94.80
2019-05-18T06:48:36.135Z,96.20
2019-05-18T06:51:07.214Z,96.50
2019-05-18T06:53:31.174Z,97.00
2019-05-18T06:56:01.290Z,96.10
2019-05-18T06:58:28.158Z,95.40
2019-05-18T07:00:55.817Z,94.40
2019-05-18T07:03:25.037Z,94.00
2019-05-18T07:05:52.921Z,94.40
2019-05-18T07:08:20.528Z,93.80
2019-05-18T07:10:50.692Z,94.10
2019-05-18T07:13:20.706Z,94.00
2019-05-18T07:15:48.326Z,94.50
2019-05-18T07:18:18.276Z,94.20
2019-05-18T07:20:44.869Z,94.60
2019-05-18T07:23:11.461Z,94.30
2019-05-18T07:25:41.919Z,93.90
2019-05-18T07:28:09.551Z,94.50
2019-05-18T07:30:37.159Z,94.30
2019-05-18T07:33:07.768Z,95.10
2019-05-18T07:35:35.434Z,95.10
2019-05-18T07:38:02.783Z,95.00
2019-05-18T07:40:31.545Z,94.60
2019-05-18T07:42:59.109Z,94.10
2019-05-18T07:45:25.992Z,94.60
2019-05-18T07:47:54.918Z,93.60
2019-05-18T07:50:21.810Z,93.50
2019-05-18T07:52:48.398Z,93.50
2019-05-18T07:55:17.001Z,92.70
2019-05-18T07:57:43.799Z,93.00
2019-05-18T08:00:11.402Z,93.90
2019-05-18T08:02:41.031Z,93.60
2019-05-18T08:05:07.911Z,93.30
2019-05-18T08:07:34.807Z,93.60
2019-05-18T08:10:03.416Z,92.60
2019-05-18T08:12:30.292Z,92.70
2019-05-18T08:14:56.888Z,91.40
2019-05-18T08:17:25.886Z,91.60
2019-05-18T08:19:52.473Z,91.90
2019-05-18T08:22:19.268Z,92.30
2019-05-18T08:24:48.481Z,91.30
2019-05-18T08:27:15.303Z,91.30
2019-05-18T08:29:41.895Z,92.10
2019-05-18T08:32:10.940Z,91.50
2019-05-18T08:34:38.537Z,91.50
2019-05-18T08:37:05.429Z,91.30
2019-05-18T08:39:34.227Z,91.20
2019-05-18T08:42:00.875Z,91.40
2019-05-18T08:44:27.473Z,91.80
2019-05-18T08:47:00.511Z,92.40
2019-05-18T08:49:27.129Z,92.50
2019-05-18T08:52:07.440Z,92.60
2019-05-18T08:54:24.101Z,91.80
2019-05-18T08:56:50.989Z,92.80
2019-05-18T08:59:17.576Z,92.90
2019-05-18T09:01:47.728Z,92.70
2019-05-18T09:04:14.327Z,92.70
2019-05-18T09:06:40.932Z,93.60
2019-05-18T09:09:10.064Z,93.60
2019-05-18T09:11:36.663Z,93.00
2019-05-18T09:14:03.405Z,93.10
2019-05-18T09:16:32.371Z,93.30
2019-05-18T09:19:01.377Z,93.20
2019-05-18T09:21:28.971Z,92.50
2019-05-18T09:23:58.613Z,93.80
2019-05-18T09:26:25.308Z,93.60
2019-05-18T09:28:51.918Z,92.10
2019-05-18T09:31:21.447Z,92.50
2019-05-18T09:33:49.356Z,92.60
2019-05-18T09:36:16.594Z,92.90
2019-05-18T09:38:46.174Z,92.80
2019-05-18T09:41:12.798Z,93.10
2019-05-18T09:43:39.607Z,92.80
2019-05-18T09:46:08.578Z,92.30
2019-05-18T09:48:35.553Z,92.60
2019-05-18T09:51:02.252Z,92.00
2019-05-18T09:53:30.967Z,92.60
2019-05-18T09:55:57.727Z,92.30
2019-05-18T09:58:24.601Z,91.90
2019-05-18T10:00:53.530Z,92.20
2019-05-18T10:03:20.115Z,92.70
2019-05-18T10:05:46.713Z,92.30
2019-05-18T10:08:16.114Z,92.30
2019-05-18T10:10:42.887Z,91.90
2019-05-18T10:13:09.763Z,92.40
2019-05-18T10:15:38.558Z,92.00
2019-05-18T10:18:05.723Z,92.70
2019-05-18T10:20:32.631Z,92.50
2019-05-18T10:23:12.464Z,92.20
2019-05-18T10:25:30.171Z,92.10
2019-05-18T10:27:56.762Z,92.20
2019-05-18T10:30:25.757Z,92.40
2019-05-18T10:32:52.453Z,92.70
2019-05-18T10:35:20.078Z,92.80
2019-05-18T10:37:48.858Z,92.30
2019-05-18T10:40:15.464Z,91.80
2019-05-18T10:42:42.325Z,91.70
2019-05-18T10:45:13.228Z,91.60
2019-05-18T10:47:40.153Z,91.60
2019-05-18T10:50:06.747Z,91.90
2019-05-18T10:52:35.714Z,92.50
2019-05-18T10:57:50.063Z,92.80
2019-05-18T11:00:16.670Z,92.70
2019-05-18T11:02:43.322Z,92.60
2019-05-18T11:05:11.965Z,92.90
2019-05-18T11:07:38.840Z,92.70
2019-05-18T11:10:05.650Z,93.10
2019-05-18T11:12:34.470Z,92.80
2019-05-18T11:15:01.052Z,92.50
2019-05-18T11:17:28.018Z,91.70
2019-05-18T11:19:56.690Z,92.80
2019-05-18T11:22:23.289Z,91.70
2019-05-18T11:24:50.167Z,92.50
2019-05-18T11:27:19.298Z,91.50
2019-05-18T11:29:45.891Z,90.60
2019-05-18T11:32:12.758Z,91.20
2019-05-18T11:34:44.403Z,91.40
2019-05-18T11:37:10.997Z,91.10
2019-05-18T11:39:37.589Z,91.70
2019-05-18T11:42:06.257Z,91.10
2019-05-18T11:44:32.848Z,92.30
2019-05-18T11:46:59.462Z,91.80
2019-05-18T11:49:29.159Z,91.50
2019-05-18T11:51:55.905Z,90.80
2019-05-18T11:54:22.502Z,90.80
2019-05-18T11:56:51.198Z,90.80
2019-05-18T11:59:17.761Z,89.50
2019-05-18T12:01:44.311Z,87.80
2019-05-18T12:04:13.083Z,88.10
2019-05-18T12:06:40.024Z,88.50
2019-05-18T12:09:06.692Z,88.10
2019-05-18T12:11:35.510Z,86.20
2019-05-18T12:14:02.359Z,86.50
2019-05-18T12:16:28.986Z,85.90
2019-05-18T12:18:57.898Z,90.20
2019-05-18T12:21:24.491Z,88.70
2019-05-18T12:23:52.108Z,84.90
2019-05-18T12:26:22.003Z,84.90
2019-05-18T12:28:49.089Z,86.90
2019-05-18T12:31:16.977Z,83.00
2019-05-18T12:33:47.032Z,87.70
2019-05-18T12:36:15.565Z,87.10
2019-05-18T12:38:42.209Z,90.10
2019-05-18T12:41:11.887Z,85.20
2019-05-18T12:43:39.792Z,85.80
2019-05-18T12:46:06.753Z,85.70
2019-05-18T12:48:40.325Z,85.40
2019-05-18T12:51:10.544Z,83.30
2019-05-18T12:53:37.495Z,84.70
2019-05-18T12:56:06.650Z,85.60
2019-05-18T12:58:33.575Z,85.70
2019-05-18T13:01:00.752Z,85.20
2019-05-18T13:03:30.823Z,86.00
2019-05-18T13:05:57.693Z,84.20
2019-05-18T13:08:24.585Z,82.20
2019-05-18T13:10:53.150Z,82.50
2019-05-18T13:13:19.726Z,80.10
2019-05-18T13:15:46.260Z,81.80
2019-05-18T13:18:14.858Z,82.30
2019-05-18T13:20:41.542Z,81.30
2019-05-18T13:23:08.016Z,80.90
2019-05-18T13:25:37.674Z,80.80
2019-05-18T13:28:04.587Z,80.20
2019-05-18T13:30:31.460Z,83.20
2019-05-18T13:32:59.979Z,81.90
2019-05-18T13:35:26.887Z,84.40
2019-05-18T13:37:53.598Z,81.60
2019-05-18T13:40:25.705Z,82.70
2019-05-18T13:42:52.201Z,80.10
2019-05-18T13:45:18.745Z,77.50
2019-05-18T13:47:47.301Z,81.30
2019-05-18T13:50:13.814Z,82.00
2019-05-18T13:52:40.344Z,78.90
2019-05-18T13:55:10.786Z,76.30
2019-05-18T13:57:37.279Z,77.40
2019-05-18T14:00:03.795Z,76.50
2019-05-18T14:02:35.528Z,76.80
2019-05-18T14:05:03.055Z,77.10
2019-05-18T14:07:29.559Z,77.30
2019-05-18T14:09:59.773Z,79.40
2019-05-18T14:12:26.304Z,79.70
2019-05-18T14:14:52.794Z,78.50
2019-05-18T14:17:22.294Z,79.40
2019-05-18T14:19:49.477Z,78.40
2019-05-18T14:22:16.190Z,78.10
2019-05-18T14:27:19.201Z,78.50
2019-05-18T14:29:45.821Z,79.30
2019-05-18T14:32:13.460Z,80.50
2019-05-18T14:34:42.100Z,80.40
2019-05-18T14:37:09.045Z,78.10
2019-05-18T14:39:35.905Z,77.60
2019-05-18T14:42:07.853Z,76.60
2019-05-18T14:44:34.791Z,77.80
2019-05-18T14:47:01.685Z,78.10
2019-05-18T14:49:31.630Z,76.50
2019-05-18T14:51:58.811Z,77.80
2019-05-18T14:54:25.933Z,77.60
2019-05-18T15:01:59.039Z,77.00
2019-05-18T15:04:25.562Z,74.90
2019-05-18T15:06:52.100Z,71.80
2019-05-18T15:09:20.378Z,74.20
2019-05-18T15:11:46.894Z,73.30
2019-05-18T15:14:13.412Z,72.50
2019-05-18T15:16:41.932Z,73.00
2019-05-18T15:19:08.434Z,69.90
2019-05-18T15:21:34.940Z,69.70
2019-05-18T15:26:35.359Z,68.80
2019-05-18T15:29:01.881Z,70.90
2019-05-18T15:31:28.374Z,70.30
2019-05-18T15:33:57.868Z,73.20
2019-05-18T15:36:24.370Z,69.00
2019-05-18T15:38:50.881Z,71.30
2019-05-18T15:41:20.154Z,66.90
2019-05-18T15:43:46.769Z,65.10
2019-05-18T15:46:13.426Z,69.70
2019-05-18T15:51:15.202Z,67.30
2019-05-18T15:53:41.732Z,67.70
2019-05-18T15:56:08.232Z,67.80
2019-05-18T16:08:45.199Z,70.50
2019-05-18T16:11:11.709Z,70.20
2019-05-18T16:13:38.230Z,69.90
2019-05-18T16:18:38.760Z,67.50
2019-05-18T16:21:05.269Z,68.70
2019-05-18T16:23:31.789Z,67.60
2019-05-18T16:26:03.286Z,65.10
2019-05-18T16:28:29.783Z,65.20
2019-05-18T16:30:56.293Z,66.60
2019-05-18T16:33:26.054Z,64.50
2019-05-18T16:35:52.564Z,66.20
2019-05-18T16:38:19.080Z,65.50
2019-05-18T16:43:23.011Z,67.00
2019-05-18T16:45:50.154Z,67.60
2019-05-18T16:48:16.634Z,67.70
2019-05-18T16:53:18.235Z,69.70
2019-05-18T16:55:45.139Z,70.40
2019-05-18T16:58:12.049Z,70.30
2019-05-18T17:00:40.737Z,71.10
2019-05-18T17:03:07.618Z,69.90
2019-05-18T17:05:34.502Z,71.20
2019-05-18T17:10:36.257Z,70.50
2019-05-18T17:13:03.132Z,69.20
2019-05-18T17:15:30.330Z,70.20
2019-05-18T17:18:02.721Z,71.00
2019-05-18T17:20:29.624Z,71.30
2019-05-18T17:22:56.515Z,70.80
2019-05-18T17:25:25.651Z,71.10
2019-05-18T17:27:52.543Z,72.00
2019-05-18T17:30:19.457Z,71.70
2019-05-18T17:32:48.659Z,72.00
2019-05-18T17:35:15.332Z,72.30
2019-05-18T17:37:42.198Z,72.60
2019-05-18T17:40:12.092Z,72.30
2019-05-18T17:42:38.965Z,72.60
2019-05-18T17:45:06.156Z,72.70
2019-05-18T17:47:34.942Z,72.80
2019-05-18T17:50:02.129Z,72.70
2019-05-18T17:52:28.989Z,72.70
2019-05-18T17:55:00.721Z,73.80
2019-05-18T17:57:27.593Z,73.60
2019-05-18T17:59:54.922Z,73.50
2019-05-18T18:02:23.381Z,73.10
2019-05-18T18:04:53.975Z,75.00
2019-05-18T18:07:19.133Z,75.60
2019-05-18T18:09:51.405Z,75.30
2019-05-18T18:12:18.292Z,76.30
2019-05-18T18:14:44.876Z,76.10
2019-05-18T18:17:17.544Z,76.80
2019-05-18T18:19:43.000Z,76.50
2019-05-18T18:22:13.615Z,76.80
2019-05-18T18:24:42.849Z,78.30
2019-05-18T18:27:24.195Z,78.40
2019-05-18T18:29:38.354Z,77.90
2019-05-18T18:32:07.349Z,78.60
2019-05-18T18:34:34.227Z,78.40
2019-05-18T18:37:01.089Z,78.10
2019-05-18T18:42:02.048Z,79.70
2019-05-18T18:44:28.926Z,81.60
2019-05-18T18:46:55.545Z,82.00
2019-05-18T18:49:24.245Z,82.10
2019-05-18T18:51:50.962Z,82.00
2019-05-18T18:54:17.693Z,80.90
2019-05-18T18:59:19.651Z,82.10
2019-05-18T19:01:46.412Z,81.90
2019-05-18T19:04:15.056Z,83.20
2019-05-18T19:06:43.838Z,83.00
2019-05-18T19:09:14.845Z,84.20
2019-05-18T19:11:42.934Z,85.10
2019-05-18T19:16:44.466Z,85.00
2019-05-18T19:19:12.091Z,84.80
2019-05-18T19:26:45.589Z,85.40
2019-05-18T19:29:12.177Z,86.40
2019-05-18T19:31:38.775Z,87.90
2019-05-18T19:34:07.862Z,87.70
2019-05-18T19:36:34.718Z,87.20
2019-05-18T19:39:01.297Z,88.20
2019-05-18T19:44:05.415Z,88.70
2019-05-18T19:46:33.040Z,89.50
2019-05-18T19:48:59.648Z,89.00
2019-05-18T19:51:29.907Z,88.80
2019-05-18T19:53:56.796Z,88.60
2019-05-18T19:56:23.413Z,88.40
2019-05-18T20:01:27.457Z,88.90
2019-05-18T20:03:55.044Z,88.70
2019-05-18T20:06:22.965Z,89.10
2019-05-18T20:08:55.040Z,89.20
2019-05-18T20:11:22.921Z,89.50
2019-05-18T20:13:50.745Z,89.30
2019-05-18T20:16:19.449Z,90.10
2019-05-18T20:18:46.170Z,90.80
2019-05-18T20:21:14.056Z,91.00
2019-05-18T20:23:45.997Z,91.20
2019-05-18T20:26:16.906Z,90.90
2019-05-18T20:28:43.804Z,90.90
2019-05-18T20:31:13.560Z,91.20
2019-05-18T20:33:40.318Z,91.40
2019-05-18T20:36:07.922Z,91.10
2019-05-18T20:38:36.634Z,91.10
2019-05-18T20:41:03.377Z,91.50
2019-05-18T20:43:30.279Z,91.90
2019-05-18T20:45:58.945Z,92.10
2019-05-18T20:48:25.870Z,92.30
2019-05-18T20:50:52.480Z,92.20
2019-05-18T20:53:21.803Z,92.20
2019-05-18T20:55:48.407Z,91.90
2019-05-18T20:58:15.021Z,91.80
2019-05-18T21:00:43.440Z,91.60
2019-05-18T21:03:10.034Z,91.70
2019-05-18T21:05:36.651Z,91.50
2019-05-18T21:08:05.244Z,91.80
2019-05-18T21:10:32.104Z,91.80
2019-05-18T21:12:59.040Z,91.90
2019-05-18T21:15:29.695Z,92.20
2019-05-18T21:17:56.467Z,92.60
2019-05-18T21:20:23.079Z,92.40
2019-05-18T21:22:51.931Z,92.90
2019-05-18T21:25:18.532Z,93.10
2019-05-18T21:27:45.250Z,93.30
2019-05-18T21:30:14.076Z,93.00
2019-05-18T21:32:40.994Z,92.70
2019-05-18T21:35:07.898Z,92.80
2019-05-18T21:37:37.701Z,93.00
2019-05-18T21:40:04.292Z,93.90
2019-05-18T21:42:30.924Z,93.80
2019-05-18T21:44:59.854Z,93.90
2019-05-18T21:47:26.726Z,94.80
2019-05-18T21:49:53.320Z,94.50
2019-05-18T21:52:22.044Z,94.10
2019-05-18T21:54:48.633Z,94.20
2019-05-18T21:57:15.231Z,94.90
2019-05-18T22:02:19.476Z,94.20
2019-05-18T22:04:46.194Z,95.10
2019-05-18T22:07:13.062Z,94.60
2019-05-18T22:09:41.589Z,95.10
2019-05-18T22:12:08.171Z,96.00
2019-05-18T22:14:34.763Z,95.70
2019-05-18T22:17:05.013Z,96.10
2019-05-18T22:19:31.609Z,97.10
2019-05-18T22:21:58.776Z,97.50
2019-05-18T22:24:27.206Z,96.90
2019-05-18T22:26:54.811Z,96.80
2019-05-18T22:29:21.403Z,96.90
2019-05-18T22:34:22.102Z,96.40
2019-05-18T22:36:48.711Z,97.90
2019-05-18T22:39:15.306Z,98.00
2019-05-18T22:41:46.808Z,97.50
2019-05-18T22:44:13.697Z,96.90
2019-05-18T22:46:40.274Z,96.50
2019-05-18T22:49:08.949Z,96.90
2019-05-18T22:51:35.822Z,96.90
2019-05-18T22:54:02.500Z,96.60
2019-05-18T22:56:32.145Z,97.60
2019-05-18T22:58:58.742Z,97.30
2019-05-18T23:01:25.446Z,96.90
2019-05-18T23:03:54.212Z,98.00
2019-05-18T23:06:21.088Z,98.10
2019-05-18T23:08:47.677Z,97.70
2019-05-18T23:11:17.049Z,97.30
2019-05-18T23:13:43.916Z,97.40
2019-05-18T23:16:10.590Z,98.20
2019-05-18T23:18:39.679Z,98.00
2019-05-18T23:21:06.278Z,97.50
2019-05-18T23:23:32.855Z,98.10
2019-05-18T23:26:02.419Z,99.10
2019-05-18T23:28:29.318Z,98.70
2019-05-18T23:30:56.188Z,98.90
2019-05-18T23:33:24.837Z,99.40
2019-05-18T23:35:51.459Z,99.30
2019-05-18T23:38:18.075Z,98.90
2019-05-18T23:40:47.345Z,98.40
2019-05-18T23:43:13.933Z,97.80
2019-05-18T23:45:40.531Z,97.30
2019-05-18T23:48:10.911Z,97.10
2019-05-18T23:50:37.555Z,97.00
2019-05-18T23:53:04.435Z,96.80
2019-05-18T23:55:33.660Z,96.70
2019-05-18T23:58:05.294Z,97.30
